sensor_id;sensor_type;location;lat;lon;timestamp;temperature;humidity
60353;DHT22;46196;52.970;6.954;2024-01-06T00:02:16;2.60;99.90
60353;DHT22;46196;52.970;6.954;2024-01-06T00:04:41;2.50;99.90
60353;DHT22;46196;52.970;6.954;2024-01-06T00:07:07;2.50;99.90
60353;DHT22;46196;52.970;6.954;2024-01-06T00:09:33;2.50;99.90
60353;DHT22;46196;52.970;6.954;2024-01-06T00:11:58;2.40;99.90
60353;DHT22;46196;52.970;6.954;2024-01-06T00:14:24;2.40;99.90
60353;DHT22;46196;52.970;6.954;2024-01-06T00:16:50;2.40;99.90
60353;DHT22;46196;52.970;6.954;2024-01-06T00:19:15;2.40;99.90
60353;DHT22;46196;52.970;6.954;2024-01-06T00:21:43;2.40;99.90
60353;DHT22;46196;52.970;6.954;2024-01-06T00:24:08;2.40;99.90
60353;DHT22;46196;52.970;6.954;2024-01-06T00:26:34;2.40;99.90
60353;DHT22;46196;52.970;6.954;2024-01-06T00:29:00;2.40;99.90
60353;DHT22;46196;52.970;6.954;2024-01-06T00:31:25;2.30;99.90
60353;DHT22;46196;52.970;6.954;2024-01-06T00:33:51;2.30;99.90
60353;DHT22;46196;52.970;6.954;2024-01-06T00:36:17;2.30;99.90
60353;DHT22;46196;52.970;6.954;2024-01-06T00:38:42;2.30;99.90
60353;DHT22;46196;52.970;6.954;2024-01-06T00:41:08;2.30;99.90
60353;DHT22;46196;52.970;6.954;2024-01-06T00:43:33;2.30;99.90
60353;DHT22;46196;52.970;6.954;2024-01-06T00:45:59;2.30;99.90
60353;DHT22;46196;52.970;6.954;2024-01-06T00:48:25;2.30;99.90
60353;DHT22;46196;52.970;6.954;2024-01-06T00:50:50;2.30;99.90
60353;DHT22;46196;52.970;6.954;2024-01-06T00:53:16;2.30;99.90
60353;DHT22;46196;52.970;6.954;2024-01-06T00:55:42;2.30;99.90
60353;DHT22;46196;52.970;6.954;2024-01-06T00:58:07;2.30;99.90
60353;DHT22;46196;52.970;6.954;2024-01-06T01:00:34;2.30;99.90
60353;DHT22;46196;52.970;6.954;2024-01-06T01:02:59;2.20;99.90
60353;DHT22;46196;52.970;6.954;2024-01-06T01:05:25;2.20;99.90
60353;DHT22;46196;52.970;6.954;2024-01-06T01:07:51;2.20;99.90
60353;DHT22;46196;52.970;6.954;2024-01-06T01:10:16;2.20;99.90
60353;DHT22;46196;52.970;6.954;2024-01-06T01:12:42;2.20;99.90
60353;DHT22;46196;52.970;6.954;2024-01-06T01:15:08;2.20;99.90
60353;DHT22;46196;52.970;6.954;2024-01-06T01:17:34;2.20;99.90
60353;DHT22;46196;52.970;6.954;2024-01-06T01:19:59;2.20;99.90
60353;DHT22;46196;52.970;6.954;2024-01-06T01:22:25;2.20;99.90
60353;DHT22;46196;52.970;6.954;2024-01-06T01:24:51;2.20;99.90
60353;DHT22;46196;52.970;6.954;2024-01-06T01:27:16;2.20;99.90
60353;DHT22;46196;52.970;6.954;2024-01-06T01:29:42;2.20;99.90
60353;DHT22;46196;52.970;6.954;2024-01-06T01:32:08;2.10;99.90
60353;DHT22;46196;52.970;6.954;2024-01-06T01:34:33;2.20;99.90
60353;DHT22;46196;52.970;6.954;2024-01-06T01:37:00;2.20;99.90
60353;DHT22;46196;52.970;6.954;2024-01-06T01:39:25;2.20;99.90
60353;DHT22;46196;52.970;6.954;2024-01-06T01:41:51;2.20;99.90
60353;DHT22;46196;52.970;6.954;2024-01-06T01:44:17;2.20;99.90
60353;DHT22;46196;52.970;6.954;2024-01-06T01:46:42;2.20;99.90
60353;DHT22;46196;52.970;6.954;2024-01-06T01:49:08;2.10;99.90
60353;DHT22;46196;52.970;6.954;2024-01-06T01:51:35;2.10;99.90
60353;DHT22;46196;52.970;6.954;2024-01-06T01:54:05;2.10;99.90
60353;DHT22;46196;52.970;6.954;2024-01-06T01:56:34;2.00;99.90
60353;DHT22;46196;52.970;6.954;2024-01-06T01:59:12;2.10;99.90
60353;DHT22;46196;52.970;6.954;2024-01-06T02:01:41;2.00;99.90
60353;DHT22;46196;52.970;6.954;2024-01-06T02:04:08;2.00;99.90
60353;DHT22;46196;52.970;6.954;2024-01-06T02:06:34;2.00;99.90
60353;DHT22;46196;52.970;6.954;2024-01-06T02:09:00;2.00;99.90
60353;DHT22;46196;52.970;6.954;2024-01-06T02:11:26;2.00;99.90
60353;DHT22;46196;52.970;6.954;2024-01-06T02:13:51;1.90;99.90
60353;DHT22;46196;52.970;6.954;2024-01-06T02:16:17;1.90;99.90
60353;DHT22;46196;52.970;6.954;2024-01-06T02:18:43;1.90;99.90
60353;DHT22;46196;52.970;6.954;2024-01-06T02:21:09;1.80;99.90
60353;DHT22;46196;52.970;6.954;2024-01-06T02:23:36;1.80;99.90
60353;DHT22;46196;52.970;6.954;2024-01-06T02:26:02;1.80;99.90
60353;DHT22;46196;52.970;6.954;2024-01-06T02:28:28;1.80;99.90
60353;DHT22;46196;52.970;6.954;2024-01-06T02:30:54;1.70;99.90
60353;DHT22;46196;52.970;6.954;2024-01-06T02:33:19;1.70;99.90
60353;DHT22;46196;52.970;6.954;2024-01-06T02:35:46;1.80;99.90
60353;DHT22;46196;52.970;6.954;2024-01-06T02:38:12;1.70;99.90
60353;DHT22;46196;52.970;6.954;2024-01-06T02:40:37;1.70;99.90
60353;DHT22;46196;52.970;6.954;2024-01-06T02:43:03;1.70;99.90
60353;DHT22;46196;52.970;6.954;2024-01-06T02:45:29;1.70;99.90
60353;DHT22;46196;52.970;6.954;2024-01-06T02:47:54;1.70;99.90
60353;DHT22;46196;52.970;6.954;2024-01-06T02:50:20;1.70;99.90
60353;DHT22;46196;52.970;6.954;2024-01-06T02:52:46;1.70;99.90
60353;DHT22;46196;52.970;6.954;2024-01-06T02:55:12;1.80;99.90
60353;DHT22;46196;52.970;6.954;2024-01-06T02:57:38;1.70;99.90
60353;DHT22;46196;52.970;6.954;2024-01-06T03:00:04;1.70;99.90
60353;DHT22;46196;52.970;6.954;2024-01-06T03:02:30;1.70;99.90
60353;DHT22;46196;52.970;6.954;2024-01-06T03:04:55;1.60;99.90
60353;DHT22;46196;52.970;6.954;2024-01-06T03:07:21;1.60;99.90
60353;DHT22;46196;52.970;6.954;2024-01-06T03:09:47;1.60;99.90
60353;DHT22;46196;52.970;6.954;2024-01-06T03:12:13;1.60;99.90
60353;DHT22;46196;52.970;6.954;2024-01-06T03:14:38;1.60;99.90
60353;DHT22;46196;52.970;6.954;2024-01-06T03:17:04;1.60;99.90
60353;DHT22;46196;52.970;6.954;2024-01-06T03:19:33;1.60;99.90
60353;DHT22;46196;52.970;6.954;2024-01-06T03:21:59;1.60;99.90
60353;DHT22;46196;52.970;6.954;2024-01-06T03:24:26;1.60;99.90
60353;DHT22;46196;52.970;6.954;2024-01-06T03:26:53;1.50;99.90
60353;DHT22;46196;52.970;6.954;2024-01-06T03:29:19;1.50;99.90
60353;DHT22;46196;52.970;6.954;2024-01-06T03:31:45;1.50;99.90
60353;DHT22;46196;52.970;6.954;2024-01-06T03:34:11;1.60;99.90
60353;DHT22;46196;52.970;6.954;2024-01-06T03:36:37;1.50;99.90
60353;DHT22;46196;52.970;6.954;2024-01-06T03:39:03;1.50;99.90
60353;DHT22;46196;52.970;6.954;2024-01-06T03:41:29;1.80;99.90
60353;DHT22;46196;52.970;6.954;2024-01-06T03:43:55;1.50;99.90
60353;DHT22;46196;52.970;6.954;2024-01-06T03:46:21;1.50;99.90
60353;DHT22;46196;52.970;6.954;2024-01-06T03:48:46;1.50;99.90
60353;DHT22;46196;52.970;6.954;2024-01-06T03:51:12;1.40;99.90
60353;DHT22;46196;52.970;6.954;2024-01-06T03:53:38;1.40;99.90
60353;DHT22;46196;52.970;6.954;2024-01-06T03:56:04;1.40;99.90
60353;DHT22;46196;52.970;6.954;2024-01-06T03:58:29;1.40;99.90
60353;DHT22;46196;52.970;6.954;2024-01-06T04:00:55;1.40;99.90
60353;DHT22;46196;52.970;6.954;2024-01-06T04:03:21;1.40;99.90
60353;DHT22;46196;52.970;6.954;2024-01-06T04:05:46;1.40;99.90
60353;DHT22;46196;52.970;6.954;2024-01-06T04:08:12;1.40;99.90
60353;DHT22;46196;52.970;6.954;2024-01-06T04:10:37;1.40;99.90
60353;DHT22;46196;52.970;6.954;2024-01-06T04:13:04;1.60;99.90
60353;DHT22;46196;52.970;6.954;2024-01-06T04:15:29;1.40;99.90
60353;DHT22;46196;52.970;6.954;2024-01-06T04:17:55;1.40;99.90
60353;DHT22;46196;52.970;6.954;2024-01-06T04:20:21;1.40;99.90
60353;DHT22;46196;52.970;6.954;2024-01-06T04:22:46;1.40;99.90
60353;DHT22;46196;52.970;6.954;2024-01-06T04:25:12;1.40;99.90
60353;DHT22;46196;52.970;6.954;2024-01-06T04:27:38;1.40;99.90
60353;DHT22;46196;52.970;6.954;2024-01-06T04:30:04;1.40;99.90
60353;DHT22;46196;52.970;6.954;2024-01-06T04:32:30;1.40;99.90
60353;DHT22;46196;52.970;6.954;2024-01-06T04:34:55;1.40;99.90
60353;DHT22;46196;52.970;6.954;2024-01-06T04:37:23;1.40;99.90
60353;DHT22;46196;52.970;6.954;2024-01-06T04:39:49;1.40;99.90
60353;DHT22;46196;52.970;6.954;2024-01-06T04:42:15;1.40;99.90
60353;DHT22;46196;52.970;6.954;2024-01-06T04:44:40;1.40;99.90
60353;DHT22;46196;52.970;6.954;2024-01-06T04:47:06;1.40;99.90
60353;DHT22;46196;52.970;6.954;2024-01-06T04:49:32;1.40;99.90
60353;DHT22;46196;52.970;6.954;2024-01-06T04:51:58;1.40;99.90
60353;DHT22;46196;52.970;6.954;2024-01-06T04:54:23;1.40;99.90
60353;DHT22;46196;52.970;6.954;2024-01-06T04:56:49;1.40;99.90
60353;DHT22;46196;52.970;6.954;2024-01-06T04:59:14;1.40;99.90
60353;DHT22;46196;52.970;6.954;2024-01-06T05:01:40;1.40;99.90
60353;DHT22;46196;52.970;6.954;2024-01-06T05:04:06;1.40;99.90
60353;DHT22;46196;52.970;6.954;2024-01-06T05:06:31;1.40;99.90
60353;DHT22;46196;52.970;6.954;2024-01-06T05:08:58;1.40;99.90
60353;DHT22;46196;52.970;6.954;2024-01-06T05:11:23;1.40;99.90
60353;DHT22;46196;52.970;6.954;2024-01-06T05:13:49;1.40;99.90
60353;DHT22;46196;52.970;6.954;2024-01-06T05:16:15;1.30;99.90
60353;DHT22;46196;52.970;6.954;2024-01-06T05:18:40;1.30;99.90
60353;DHT22;46196;52.970;6.954;2024-01-06T05:21:06;1.30;99.90
60353;DHT22;46196;52.970;6.954;2024-01-06T05:23:32;1.30;99.90
60353;DHT22;46196;52.970;6.954;2024-01-06T05:25:58;1.30;99.90
60353;DHT22;46196;52.970;6.954;2024-01-06T05:28:24;1.30;99.90
60353;DHT22;46196;52.970;6.954;2024-01-06T05:30:49;1.30;99.90
60353;DHT22;46196;52.970;6.954;2024-01-06T05:33:16;1.30;99.90
60353;DHT22;46196;52.970;6.954;2024-01-06T05:35:41;1.30;99.90
60353;DHT22;46196;52.970;6.954;2024-01-06T05:38:07;1.30;99.90
60353;DHT22;46196;52.970;6.954;2024-01-06T05:40:33;1.30;99.90
60353;DHT22;46196;52.970;6.954;2024-01-06T05:42:58;1.30;99.90
60353;DHT22;46196;52.970;6.954;2024-01-06T05:45:24;1.30;99.90
60353;DHT22;46196;52.970;6.954;2024-01-06T05:47:50;1.20;99.90
60353;DHT22;46196;52.970;6.954;2024-01-06T05:50:16;1.20;99.90
60353;DHT22;46196;52.970;6.954;2024-01-06T05:52:42;1.20;99.90
60353;DHT22;46196;52.970;6.954;2024-01-06T05:55:08;1.20;99.90
60353;DHT22;46196;52.970;6.954;2024-01-06T05:57:35;1.20;99.90
60353;DHT22;46196;52.970;6.954;2024-01-06T06:00:00;1.30;99.90
60353;DHT22;46196;52.970;6.954;2024-01-06T06:02:26;1.30;99.90
60353;DHT22;46196;52.970;6.954;2024-01-06T06:04:52;1.20;99.90
60353;DHT22;46196;52.970;6.954;2024-01-06T06:07:18;1.20;99.90
60353;DHT22;46196;52.970;6.954;2024-01-06T06:09:44;1.20;99.90
60353;DHT22;46196;52.970;6.954;2024-01-06T06:12:15;1.20;99.90
60353;DHT22;46196;52.970;6.954;2024-01-06T06:14:41;1.30;99.90
60353;DHT22;46196;52.970;6.954;2024-01-06T06:17:07;1.30;99.90
60353;DHT22;46196;52.970;6.954;2024-01-06T06:19:32;1.20;99.90
60353;DHT22;46196;52.970;6.954;2024-01-06T06:21:58;1.20;99.90
60353;DHT22;46196;52.970;6.954;2024-01-06T06:24:24;1.20;99.90
60353;DHT22;46196;52.970;6.954;2024-01-06T06:26:49;1.20;99.90
60353;DHT22;46196;52.970;6.954;2024-01-06T06:29:15;1.40;99.90
60353;DHT22;46196;52.970;6.954;2024-01-06T06:31:41;1.20;99.90
60353;DHT22;46196;52.970;6.954;2024-01-06T06:34:10;1.20;99.90
60353;DHT22;46196;52.970;6.954;2024-01-06T06:36:36;1.20;99.90
60353;DHT22;46196;52.970;6.954;2024-01-06T06:39:02;1.20;99.90
60353;DHT22;46196;52.970;6.954;2024-01-06T06:41:29;1.20;99.90
60353;DHT22;46196;52.970;6.954;2024-01-06T06:43:56;1.20;99.90
60353;DHT22;46196;52.970;6.954;2024-01-06T06:46:23;1.20;99.90
60353;DHT22;46196;52.970;6.954;2024-01-06T06:48:49;1.20;99.90
60353;DHT22;46196;52.970;6.954;2024-01-06T06:51:16;1.40;99.90
60353;DHT22;46196;52.970;6.954;2024-01-06T06:53:41;1.20;99.90
60353;DHT22;46196;52.970;6.954;2024-01-06T06:56:07;1.20;99.90
60353;DHT22;46196;52.970;6.954;2024-01-06T06:58:33;1.20;99.90
60353;DHT22;46196;52.970;6.954;2024-01-06T07:00:58;1.20;99.90
60353;DHT22;46196;52.970;6.954;2024-01-06T07:03:24;1.20;99.90
60353;DHT22;46196;52.970;6.954;2024-01-06T07:05:52;1.20;99.90
60353;DHT22;46196;52.970;6.954;2024-01-06T07:08:17;1.20;99.90
60353;DHT22;46196;52.970;6.954;2024-01-06T07:10:43;1.20;99.90
60353;DHT22;46196;52.970;6.954;2024-01-06T07:13:09;1.10;99.90
60353;DHT22;46196;52.970;6.954;2024-01-06T07:15:34;1.10;99.90
60353;DHT22;46196;52.970;6.954;2024-01-06T07:18:00;1.10;99.90
60353;DHT22;46196;52.970;6.954;2024-01-06T07:20:26;1.10;99.90
60353;DHT22;46196;52.970;6.954;2024-01-06T07:22:51;1.20;99.90
60353;DHT22;46196;52.970;6.954;2024-01-06T07:25:17;1.20;99.90
60353;DHT22;46196;52.970;6.954;2024-01-06T07:27:43;1.20;99.90
60353;DHT22;46196;52.970;6.954;2024-01-06T07:30:09;1.20;99.90
60353;DHT22;46196;52.970;6.954;2024-01-06T07:32:34;1.10;99.90
60353;DHT22;46196;52.970;6.954;2024-01-06T07:35:00;1.20;99.90
60353;DHT22;46196;52.970;6.954;2024-01-06T07:37:26;1.10;99.90
60353;DHT22;46196;52.970;6.954;2024-01-06T07:39:51;1.10;99.90
60353;DHT22;46196;52.970;6.954;2024-01-06T07:42:18;1.10;99.90
60353;DHT22;46196;52.970;6.954;2024-01-06T07:44:43;1.10;99.90
60353;DHT22;46196;52.970;6.954;2024-01-06T07:47:10;1.10;99.90
60353;DHT22;46196;52.970;6.954;2024-01-06T07:49:36;1.10;99.90
60353;DHT22;46196;52.970;6.954;2024-01-06T07:52:02;1.10;99.90
60353;DHT22;46196;52.970;6.954;2024-01-06T07:54:27;1.10;99.90
60353;DHT22;46196;52.970;6.954;2024-01-06T07:56:53;1.10;99.90
60353;DHT22;46196;52.970;6.954;2024-01-06T07:59:19;1.10;99.90
60353;DHT22;46196;52.970;6.954;2024-01-06T08:01:44;1.10;99.90
60353;DHT22;46196;52.970;6.954;2024-01-06T08:04:10;1.10;99.90
60353;DHT22;46196;52.970;6.954;2024-01-06T08:06:36;1.10;99.90
60353;DHT22;46196;52.970;6.954;2024-01-06T08:09:02;1.10;99.90
60353;DHT22;46196;52.970;6.954;2024-01-06T08:11:28;1.00;99.90
60353;DHT22;46196;52.970;6.954;2024-01-06T08:13:54;1.00;99.90
60353;DHT22;46196;52.970;6.954;2024-01-06T08:16:20;1.00;99.90
60353;DHT22;46196;52.970;6.954;2024-01-06T08:18:46;1.10;99.90
60353;DHT22;46196;52.970;6.954;2024-01-06T08:21:12;1.10;99.90
60353;DHT22;46196;52.970;6.954;2024-01-06T08:23:37;1.10;99.90
60353;DHT22;46196;52.970;6.954;2024-01-06T08:26:04;1.10;99.90
60353;DHT22;46196;52.970;6.954;2024-01-06T08:28:30;1.10;99.90
60353;DHT22;46196;52.970;6.954;2024-01-06T08:30:56;1.10;99.90
60353;DHT22;46196;52.970;6.954;2024-01-06T08:33:22;1.10;99.90
60353;DHT22;46196;52.970;6.954;2024-01-06T08:35:47;1.10;99.90
60353;DHT22;46196;52.970;6.954;2024-01-06T08:38:13;1.10;99.90
60353;DHT22;46196;52.970;6.954;2024-01-06T08:40:40;1.10;99.90
60353;DHT22;46196;52.970;6.954;2024-01-06T08:43:05;1.10;99.90
60353;DHT22;46196;52.970;6.954;2024-01-06T08:45:31;1.10;99.90
60353;DHT22;46196;52.970;6.954;2024-01-06T08:47:57;1.10;99.90
60353;DHT22;46196;52.970;6.954;2024-01-06T08:50:23;1.10;99.90
60353;DHT22;46196;52.970;6.954;2024-01-06T08:52:49;1.10;99.90
60353;DHT22;46196;52.970;6.954;2024-01-06T08:55:15;1.20;99.90
60353;DHT22;46196;52.970;6.954;2024-01-06T08:57:42;1.20;99.90
60353;DHT22;46196;52.970;6.954;2024-01-06T09:00:08;1.60;99.90
60353;DHT22;46196;52.970;6.954;2024-01-06T09:02:34;1.20;99.90
60353;DHT22;46196;52.970;6.954;2024-01-06T09:05:00;1.20;99.90
60353;DHT22;46196;52.970;6.954;2024-01-06T09:07:26;1.20;99.90
60353;DHT22;46196;52.970;6.954;2024-01-06T09:09:51;1.20;99.90
60353;DHT22;46196;52.970;6.954;2024-01-06T09:12:17;1.20;99.90
60353;DHT22;46196;52.970;6.954;2024-01-06T09:14:42;1.30;99.90
60353;DHT22;46196;52.970;6.954;2024-01-06T09:17:08;1.20;99.90
60353;DHT22;46196;52.970;6.954;2024-01-06T09:19:34;1.30;99.90
60353;DHT22;46196;52.970;6.954;2024-01-06T09:22:00;1.20;99.90
60353;DHT22;46196;52.970;6.954;2024-01-06T09:24:26;1.30;99.90
60353;DHT22;46196;52.970;6.954;2024-01-06T09:26:51;1.20;99.90
60353;DHT22;46196;52.970;6.954;2024-01-06T09:29:17;1.20;99.90
60353;DHT22;46196;52.970;6.954;2024-01-06T09:31:43;1.30;99.90
60353;DHT22;46196;52.970;6.954;2024-01-06T09:34:12;1.30;99.90
60353;DHT22;46196;52.970;6.954;2024-01-06T09:36:38;1.30;99.90
60353;DHT22;46196;52.970;6.954;2024-01-06T09:39:03;1.30;99.90
60353;DHT22;46196;52.970;6.954;2024-01-06T09:41:30;1.30;99.90
60353;DHT22;46196;52.970;6.954;2024-01-06T09:43:56;1.30;99.90
60353;DHT22;46196;52.970;6.954;2024-01-06T09:46:26;1.30;99.90
60353;DHT22;46196;52.970;6.954;2024-01-06T09:48:53;1.30;99.90
60353;DHT22;46196;52.970;6.954;2024-01-06T09:51:20;1.30;99.90
60353;DHT22;46196;52.970;6.954;2024-01-06T09:53:56;1.30;99.90
60353;DHT22;46196;52.970;6.954;2024-01-06T09:56:24;1.30;99.90
60353;DHT22;46196;52.970;6.954;2024-01-06T09:58:50;1.30;99.90
60353;DHT22;46196;52.970;6.954;2024-01-06T10:01:17;1.40;99.90
60353;DHT22;46196;52.970;6.954;2024-01-06T10:03:44;1.40;99.90
60353;DHT22;46196;52.970;6.954;2024-01-06T10:06:11;1.40;99.90
60353;DHT22;46196;52.970;6.954;2024-01-06T10:08:37;1.40;99.90
60353;DHT22;46196;52.970;6.954;2024-01-06T10:11:06;1.40;99.90
60353;DHT22;46196;52.970;6.954;2024-01-06T10:13:33;1.40;99.90
60353;DHT22;46196;52.970;6.954;2024-01-06T10:15:59;1.40;99.90
60353;DHT22;46196;52.970;6.954;2024-01-06T10:18:25;1.40;99.90
60353;DHT22;46196;52.970;6.954;2024-01-06T10:20:52;1.40;99.90
60353;DHT22;46196;52.970;6.954;2024-01-06T10:23:19;1.40;99.90
60353;DHT22;46196;52.970;6.954;2024-01-06T10:25:44;1.40;99.90
60353;DHT22;46196;52.970;6.954;2024-01-06T10:28:13;1.40;99.90
60353;DHT22;46196;52.970;6.954;2024-01-06T10:30:41;1.50;99.90
60353;DHT22;46196;52.970;6.954;2024-01-06T10:33:10;1.50;99.90
60353;DHT22;46196;52.970;6.954;2024-01-06T10:35:37;1.50;99.90
60353;DHT22;46196;52.970;6.954;2024-01-06T10:38:03;1.50;99.90
60353;DHT22;46196;52.970;6.954;2024-01-06T10:40:29;1.50;99.90
60353;DHT22;46196;52.970;6.954;2024-01-06T10:42:56;1.50;99.90
60353;DHT22;46196;52.970;6.954;2024-01-06T10:45:23;1.50;99.90
60353;DHT22;46196;52.970;6.954;2024-01-06T10:47:49;1.50;99.90
60353;DHT22;46196;52.970;6.954;2024-01-06T10:50:17;1.50;99.90
60353;DHT22;46196;52.970;6.954;2024-01-06T10:52:43;1.50;99.90
60353;DHT22;46196;52.970;6.954;2024-01-06T10:55:09;1.60;99.90
60353;DHT22;46196;52.970;6.954;2024-01-06T10:57:37;1.50;99.90
60353;DHT22;46196;52.970;6.954;2024-01-06T11:00:04;1.50;99.90
60353;DHT22;46196;52.970;6.954;2024-01-06T11:02:31;1.50;99.90
60353;DHT22;46196;52.970;6.954;2024-01-06T11:04:58;1.50;99.90
60353;DHT22;46196;52.970;6.954;2024-01-06T11:07:24;1.50;99.90
60353;DHT22;46196;52.970;6.954;2024-01-06T11:10:15;1.50;99.90
60353;DHT22;46196;52.970;6.954;2024-01-06T11:12:44;1.50;99.90
60353;DHT22;46196;52.970;6.954;2024-01-06T11:15:44;1.50;99.90
60353;DHT22;46196;52.970;6.954;2024-01-06T11:18:33;1.60;99.90
60353;DHT22;46196;52.970;6.954;2024-01-06T11:23:40;1.60;99.90
60353;DHT22;46196;52.970;6.954;2024-01-06T11:26:09;1.60;99.90
60353;DHT22;46196;52.970;6.954;2024-01-06T11:28:45;1.60;99.90
60353;DHT22;46196;52.970;6.954;2024-01-06T11:31:11;1.60;99.90
60353;DHT22;46196;52.970;6.954;2024-01-06T11:33:46;1.60;99.90
60353;DHT22;46196;52.970;6.954;2024-01-06T11:36:15;1.60;99.90
60353;DHT22;46196;52.970;6.954;2024-01-06T11:38:41;1.70;99.90
60353;DHT22;46196;52.970;6.954;2024-01-06T11:41:10;1.60;99.90
60353;DHT22;46196;52.970;6.954;2024-01-06T11:43:56;1.60;99.90
60353;DHT22;46196;52.970;6.954;2024-01-06T11:46:21;1.60;99.90
60353;DHT22;46196;52.970;6.954;2024-01-06T11:48:48;1.60;99.90
60353;DHT22;46196;52.970;6.954;2024-01-06T11:51:17;1.60;99.90
60353;DHT22;46196;52.970;6.954;2024-01-06T11:53:44;1.60;99.90
60353;DHT22;46196;52.970;6.954;2024-01-06T11:56:11;1.60;99.90
60353;DHT22;46196;52.970;6.954;2024-01-06T11:58:39;1.50;99.90
60353;DHT22;46196;52.970;6.954;2024-01-06T12:01:05;1.50;99.90
60353;DHT22;46196;52.970;6.954;2024-01-06T12:03:31;1.50;99.90
60353;DHT22;46196;52.970;6.954;2024-01-06T12:06:00;1.50;99.90
60353;DHT22;46196;52.970;6.954;2024-01-06T12:08:28;1.50;99.90
60353;DHT22;46196;52.970;6.954;2024-01-06T12:11:04;1.50;99.90
60353;DHT22;46196;52.970;6.954;2024-01-06T12:13:30;1.50;99.90
60353;DHT22;46196;52.970;6.954;2024-01-06T12:15:56;1.50;99.90
60353;DHT22;46196;52.970;6.954;2024-01-06T12:18:22;1.50;99.90
60353;DHT22;46196;52.970;6.954;2024-01-06T12:20:50;1.50;99.90
60353;DHT22;46196;52.970;6.954;2024-01-06T12:23:28;1.50;99.90
60353;DHT22;46196;52.970;6.954;2024-01-06T12:26:00;1.50;99.90
60353;DHT22;46196;52.970;6.954;2024-01-06T12:28:27;1.50;99.90
60353;DHT22;46196;52.970;6.954;2024-01-06T12:30:54;1.50;99.90
60353;DHT22;46196;52.970;6.954;2024-01-06T12:33:20;1.50;99.90
60353;DHT22;46196;52.970;6.954;2024-01-06T12:35:45;1.60;99.90
60353;DHT22;46196;52.970;6.954;2024-01-06T12:38:11;1.50;99.90
60353;DHT22;46196;52.970;6.954;2024-01-06T12:40:37;1.60;99.90
60353;DHT22;46196;52.970;6.954;2024-01-06T12:43:04;1.60;99.90
60353;DHT22;46196;52.970;6.954;2024-01-06T12:45:31;1.60;99.90
60353;DHT22;46196;52.970;6.954;2024-01-06T12:47:56;1.60;99.90
60353;DHT22;46196;52.970;6.954;2024-01-06T12:50:22;1.60;99.90
60353;DHT22;46196;52.970;6.954;2024-01-06T12:52:47;1.60;99.90
60353;DHT22;46196;52.970;6.954;2024-01-06T12:55:13;1.50;99.90
60353;DHT22;46196;52.970;6.954;2024-01-06T12:57:39;1.50;99.90
60353;DHT22;46196;52.970;6.954;2024-01-06T13:00:05;1.50;99.90
60353;DHT22;46196;52.970;6.954;2024-01-06T13:02:33;1.50;99.90
60353;DHT22;46196;52.970;6.954;2024-01-06T13:04:58;1.50;99.90
60353;DHT22;46196;52.970;6.954;2024-01-06T13:07:24;1.50;99.90
60353;DHT22;46196;52.970;6.954;2024-01-06T13:09:50;1.50;99.90
60353;DHT22;46196;52.970;6.954;2024-01-06T13:12:16;1.50;99.90
60353;DHT22;46196;52.970;6.954;2024-01-06T13:14:43;1.50;99.90
60353;DHT22;46196;52.970;6.954;2024-01-06T13:17:12;1.50;99.90
60353;DHT22;46196;52.970;6.954;2024-01-06T13:19:39;1.50;99.90
60353;DHT22;46196;52.970;6.954;2024-01-06T13:22:05;1.50;99.90
60353;DHT22;46196;52.970;6.954;2024-01-06T13:24:31;1.40;99.90
60353;DHT22;46196;52.970;6.954;2024-01-06T13:26:56;1.40;99.90
60353;DHT22;46196;52.970;6.954;2024-01-06T13:29:24;1.50;99.90
60353;DHT22;46196;52.970;6.954;2024-01-06T13:31:50;1.50;99.90
60353;DHT22;46196;52.970;6.954;2024-01-06T13:34:15;1.50;99.90
60353;DHT22;46196;52.970;6.954;2024-01-06T13:36:41;1.40;99.90
60353;DHT22;46196;52.970;6.954;2024-01-06T13:39:07;1.40;99.90
60353;DHT22;46196;52.970;6.954;2024-01-06T13:41:32;1.40;99.90
60353;DHT22;46196;52.970;6.954;2024-01-06T13:43:58;1.40;99.90
60353;DHT22;46196;52.970;6.954;2024-01-06T13:46:24;1.40;99.90
60353;DHT22;46196;52.970;6.954;2024-01-06T13:48:50;1.50;99.90
60353;DHT22;46196;52.970;6.954;2024-01-06T13:51:16;1.40;99.90
60353;DHT22;46196;52.970;6.954;2024-01-06T13:53:42;1.40;99.90
60353;DHT22;46196;52.970;6.954;2024-01-06T13:56:08;1.40;99.90
60353;DHT22;46196;52.970;6.954;2024-01-06T13:58:33;1.40;99.90
60353;DHT22;46196;52.970;6.954;2024-01-06T14:01:02;1.50;99.90
60353;DHT22;46196;52.970;6.954;2024-01-06T14:03:28;1.50;99.90
60353;DHT22;46196;52.970;6.954;2024-01-06T14:05:53;1.50;99.90
60353;DHT22;46196;52.970;6.954;2024-01-06T14:08:20;2.40;99.90
60353;DHT22;46196;52.970;6.954;2024-01-06T14:10:46;1.50;99.90
60353;DHT22;46196;52.970;6.954;2024-01-06T14:13:12;1.50;99.90
60353;DHT22;46196;52.970;6.954;2024-01-06T14:15:37;1.40;99.90
60353;DHT22;46196;52.970;6.954;2024-01-06T14:18:04;1.40;99.90
60353;DHT22;46196;52.970;6.954;2024-01-06T14:20:29;1.40;99.90
60353;DHT22;46196;52.970;6.954;2024-01-06T14:22:57;1.40;99.90
60353;DHT22;46196;52.970;6.954;2024-01-06T14:25:22;1.40;99.90
60353;DHT22;46196;52.970;6.954;2024-01-06T14:27:48;1.40;99.90
60353;DHT22;46196;52.970;6.954;2024-01-06T14:30:14;1.30;99.90
60353;DHT22;46196;52.970;6.954;2024-01-06T14:32:39;1.30;99.90
60353;DHT22;46196;52.970;6.954;2024-01-06T14:35:06;1.20;99.90
60353;DHT22;46196;52.970;6.954;2024-01-06T14:37:33;1.20;99.90
60353;DHT22;46196;52.970;6.954;2024-01-06T14:39:59;1.20;99.90
60353;DHT22;46196;52.970;6.954;2024-01-06T14:42:30;1.20;99.90
60353;DHT22;46196;52.970;6.954;2024-01-06T14:44:55;1.20;99.90
60353;DHT22;46196;52.970;6.954;2024-01-06T14:47:21;1.20;99.90
60353;DHT22;46196;52.970;6.954;2024-01-06T14:49:46;1.20;99.90
60353;DHT22;46196;52.970;6.954;2024-01-06T14:52:12;1.30;99.90
60353;DHT22;46196;52.970;6.954;2024-01-06T14:54:38;1.20;99.90
60353;DHT22;46196;52.970;6.954;2024-01-06T14:57:04;1.20;99.90
60353;DHT22;46196;52.970;6.954;2024-01-06T14:59:29;1.20;99.90
60353;DHT22;46196;52.970;6.954;2024-01-06T15:01:55;1.20;99.90
60353;DHT22;46196;52.970;6.954;2024-01-06T15:04:21;1.10;99.90
60353;DHT22;46196;52.970;6.954;2024-01-06T15:06:47;1.20;99.90
60353;DHT22;46196;52.970;6.954;2024-01-06T15:09:13;1.10;99.90
60353;DHT22;46196;52.970;6.954;2024-01-06T15:11:39;1.10;99.90
60353;DHT22;46196;52.970;6.954;2024-01-06T15:14:04;1.20;99.90
60353;DHT22;46196;52.970;6.954;2024-01-06T15:16:33;1.10;99.90
60353;DHT22;46196;52.970;6.954;2024-01-06T15:18:59;1.10;99.90
60353;DHT22;46196;52.970;6.954;2024-01-06T15:21:25;2.10;99.90
60353;DHT22;46196;52.970;6.954;2024-01-06T15:23:53;1.10;99.90
60353;DHT22;46196;52.970;6.954;2024-01-06T15:26:24;1.10;99.90
60353;DHT22;46196;52.970;6.954;2024-01-06T15:28:50;1.10;99.90
60353;DHT22;46196;52.970;6.954;2024-01-06T15:31:16;1.10;99.90
60353;DHT22;46196;52.970;6.954;2024-01-06T15:33:42;1.10;99.90
60353;DHT22;46196;52.970;6.954;2024-01-06T15:36:08;1.00;99.90
60353;DHT22;46196;52.970;6.954;2024-01-06T15:38:34;1.00;99.90
60353;DHT22;46196;52.970;6.954;2024-01-06T15:41:00;1.00;99.90
60353;DHT22;46196;52.970;6.954;2024-01-06T15:43:26;1.00;99.90